sensor_id;sensor_type;location;lat;lon;timestamp;temperature;humidity
31747;DHT22;18319;48.974;8.462;2023-04-15T00:01:00;6.20;95.70
31747;DHT22;18319;48.974;8.462;2023-04-15T00:03:27;6.20;96.10
31747;DHT22;18319;48.974;8.462;2023-04-15T00:05:54;6.10;96.70
31747;DHT22;18319;48.974;8.462;2023-04-15T00:08:21;6.10;97.30
31747;DHT22;18319;48.974;8.462;2023-04-15T00:10:48;6.10;97.60
31747;DHT22;18319;48.974;8.462;2023-04-15T00:13:15;6.00;97.60
31747;DHT22;18319;48.974;8.462;2023-04-15T00:15:42;6.00;98.00
31747;DHT22;18319;48.974;8.462;2023-04-15T00:18:10;6.00;98.60
31747;DHT22;18319;48.974;8.462;2023-04-15T00:20:37;6.00;99.00
31747;DHT22;18319;48.974;8.462;2023-04-15T00:23:03;6.00;99.20
31747;DHT22;18319;48.974;8.462;2023-04-15T00:25:30;6.00;99.50
31747;DHT22;18319;48.974;8.462;2023-04-15T00:27:57;6.00;99.90
31747;DHT22;18319;48.974;8.462;2023-04-15T00:30:24;6.00;99.90
31747;DHT22;18319;48.974;8.462;2023-04-15T00:32:51;6.10;99.90
31747;DHT22;18319;48.974;8.462;2023-04-15T00:35:19;6.10;99.90
31747;DHT22;18319;48.974;8.462;2023-04-15T00:37:46;6.00;99.90
31747;DHT22;18319;48.974;8.462;2023-04-15T00:40:12;6.00;99.90
31747;DHT22;18319;48.974;8.462;2023-04-15T00:42:43;6.00;99.90
31747;DHT22;18319;48.974;8.462;2023-04-15T00:45:10;6.00;99.90
31747;DHT22;18319;48.974;8.462;2023-04-15T00:47:38;6.00;99.90
31747;DHT22;18319;48.974;8.462;2023-04-15T00:50:07;6.00;99.90
31747;DHT22;18319;48.974;8.462;2023-04-15T00:52:36;6.00;99.90
31747;DHT22;18319;48.974;8.462;2023-04-15T00:55:04;6.00;99.90
31747;DHT22;18319;48.974;8.462;2023-04-15T00:57:31;6.00;99.90
31747;DHT22;18319;48.974;8.462;2023-04-15T00:59:57;5.90;99.90
31747;DHT22;18319;48.974;8.462;2023-04-15T01:02:25;5.90;99.90
31747;DHT22;18319;48.974;8.462;2023-04-15T01:04:52;5.90;99.90
31747;DHT22;18319;48.974;8.462;2023-04-15T01:07:19;5.90;99.90
31747;DHT22;18319;48.974;8.462;2023-04-15T01:09:47;6.00;99.90
31747;DHT22;18319;48.974;8.462;2023-04-15T01:12:14;6.00;99.90
31747;DHT22;18319;48.974;8.462;2023-04-15T01:14:42;6.00;99.90
31747;DHT22;18319;48.974;8.462;2023-04-15T01:17:09;6.00;99.90
31747;DHT22;18319;48.974;8.462;2023-04-15T01:19:37;6.00;99.90
31747;DHT22;18319;48.974;8.462;2023-04-15T01:22:04;6.10;99.90
31747;DHT22;18319;48.974;8.462;2023-04-15T01:24:31;6.20;99.90
31747;DHT22;18319;48.974;8.462;2023-04-15T01:29:30;6.20;99.90
31747;DHT22;18319;48.974;8.462;2023-04-15T01:31:57;6.30;99.90
31747;DHT22;18319;48.974;8.462;2023-04-15T01:34:23;6.30;99.90
31747;DHT22;18319;48.974;8.462;2023-04-15T01:36:50;6.30;99.90
31747;DHT22;18319;48.974;8.462;2023-04-15T01:39:17;6.30;99.90
31747;DHT22;18319;48.974;8.462;2023-04-15T01:41:44;6.30;99.90
31747;DHT22;18319;48.974;8.462;2023-04-15T01:44:10;6.20;99.90
31747;DHT22;18319;48.974;8.462;2023-04-15T01:46:39;6.30;99.90
31747;DHT22;18319;48.974;8.462;2023-04-15T01:49:06;6.20;99.90
31747;DHT22;18319;48.974;8.462;2023-04-15T01:51:32;6.10;99.90
31747;DHT22;18319;48.974;8.462;2023-04-15T01:53:59;6.10;99.90
31747;DHT22;18319;48.974;8.462;2023-04-15T01:56:26;6.10;99.90
31747;DHT22;18319;48.974;8.462;2023-04-15T01:58:53;6.10;99.90
31747;DHT22;18319;48.974;8.462;2023-04-15T02:01:19;6.10;99.90
31747;DHT22;18319;48.974;8.462;2023-04-15T02:03:48;6.10;99.90
31747;DHT22;18319;48.974;8.462;2023-04-15T02:06:14;6.00;99.90
31747;DHT22;18319;48.974;8.462;2023-04-15T02:08:42;6.00;99.90
31747;DHT22;18319;48.974;8.462;2023-04-15T02:11:09;6.00;99.90
31747;DHT22;18319;48.974;8.462;2023-04-15T02:13:36;5.90;99.90
31747;DHT22;18319;48.974;8.462;2023-04-15T02:16:03;5.90;99.90
31747;DHT22;18319;48.974;8.462;2023-04-15T02:18:30;5.80;99.90
31747;DHT22;18319;48.974;8.462;2023-04-15T02:20:59;5.80;99.90
31747;DHT22;18319;48.974;8.462;2023-04-15T02:23:25;5.70;99.90
31747;DHT22;18319;48.974;8.462;2023-04-15T02:25:52;5.70;99.90
31747;DHT22;18319;48.974;8.462;2023-04-15T02:28:19;5.60;99.90
31747;DHT22;18319;48.974;8.462;2023-04-15T02:30:47;5.60;99.90
31747;DHT22;18319;48.974;8.462;2023-04-15T02:33:15;5.50;99.90
31747;DHT22;18319;48.974;8.462;2023-04-15T02:35:42;5.50;99.90
31747;DHT22;18319;48.974;8.462;2023-04-15T02:38:11;5.40;99.90
31747;DHT22;18319;48.974;8.462;2023-04-15T02:40:38;5.40;99.90
31747;DHT22;18319;48.974;8.462;2023-04-15T02:43:05;5.30;99.90
31747;DHT22;18319;48.974;8.462;2023-04-15T02:45:32;5.30;99.90
31747;DHT22;18319;48.974;8.462;2023-04-15T02:47:58;5.20;99.90
31747;DHT22;18319;48.974;8.462;2023-04-15T02:50:30;5.20;99.90
31747;DHT22;18319;48.974;8.462;2023-04-15T02:52:57;5.20;99.90
31747;DHT22;18319;48.974;8.462;2023-04-15T02:55:26;5.20;99.90
31747;DHT22;18319;48.974;8.462;2023-04-15T02:57:53;5.20;99.90
31747;DHT22;18319;48.974;8.462;2023-04-15T03:00:20;5.20;99.90
31747;DHT22;18319;48.974;8.462;2023-04-15T03:02:49;5.10;99.90
31747;DHT22;18319;48.974;8.462;2023-04-15T03:05:20;5.20;99.90
31747;DHT22;18319;48.974;8.462;2023-04-15T03:07:49;5.20;99.90
31747;DHT22;18319;48.974;8.462;2023-04-15T03:10:15;5.20;99.90
31747;DHT22;18319;48.974;8.462;2023-04-15T03:12:43;5.10;99.90
31747;DHT22;18319;48.974;8.462;2023-04-15T03:15:10;5.10;99.90
31747;DHT22;18319;48.974;8.462;2023-04-15T03:17:37;5.10;99.90
31747;DHT22;18319;48.974;8.462;2023-04-15T03:20:05;5.10;99.90
31747;DHT22;18319;48.974;8.462;2023-04-15T03:22:33;5.00;99.90
31747;DHT22;18319;48.974;8.462;2023-04-15T03:24:59;5.00;99.90
31747;DHT22;18319;48.974;8.462;2023-04-15T03:27:26;5.00;99.90
31747;DHT22;18319;48.974;8.462;2023-04-15T03:29:54;4.90;99.90
31747;DHT22;18319;48.974;8.462;2023-04-15T03:32:21;4.90;99.90
31747;DHT22;18319;48.974;8.462;2023-04-15T03:34:48;4.90;99.90
31747;DHT22;18319;48.974;8.462;2023-04-15T03:37:15;4.90;99.90
31747;DHT22;18319;48.974;8.462;2023-04-15T03:39:42;4.90;99.90
31747;DHT22;18319;48.974;8.462;2023-04-15T03:42:08;4.90;99.90
31747;DHT22;18319;48.974;8.462;2023-04-15T03:44:35;4.90;99.90
31747;DHT22;18319;48.974;8.462;2023-04-15T03:47:04;4.90;99.90
31747;DHT22;18319;48.974;8.462;2023-04-15T03:49:31;5.00;99.90
31747;DHT22;18319;48.974;8.462;2023-04-15T03:51:57;5.00;99.90
31747;DHT22;18319;48.974;8.462;2023-04-15T03:54:25;5.10;99.90
31747;DHT22;18319;48.974;8.462;2023-04-15T03:56:51;5.10;99.90
31747;DHT22;18319;48.974;8.462;2023-04-15T03:59:18;5.10;99.90
31747;DHT22;18319;48.974;8.462;2023-04-15T04:01:45;5.10;99.90
31747;DHT22;18319;48.974;8.462;2023-04-15T04:04:13;5.10;99.90
31747;DHT22;18319;48.974;8.462;2023-04-15T04:06:40;5.00;99.90
31747;DHT22;18319;48.974;8.462;2023-04-15T04:09:06;5.00;99.90
31747;DHT22;18319;48.974;8.462;2023-04-15T04:11:33;5.00;99.90
31747;DHT22;18319;48.974;8.462;2023-04-15T04:14:00;5.00;99.90
31747;DHT22;18319;48.974;8.462;2023-04-15T04:16:26;5.00;99.90
31747;DHT22;18319;48.974;8.462;2023-04-15T04:18:53;5.00;99.90
31747;DHT22;18319;48.974;8.462;2023-04-15T04:21:21;5.00;99.90
31747;DHT22;18319;48.974;8.462;2023-04-15T04:23:48;5.00;99.90
31747;DHT22;18319;48.974;8.462;2023-04-15T04:26:15;5.00;99.90
31747;DHT22;18319;48.974;8.462;2023-04-15T04:28:42;5.00;99.90
31747;DHT22;18319;48.974;8.462;2023-04-15T04:31:08;5.00;99.90
31747;DHT22;18319;48.974;8.462;2023-04-15T04:33:35;5.10;99.90
31747;DHT22;18319;48.974;8.462;2023-04-15T04:36:02;5.00;99.90
31747;DHT22;18319;48.974;8.462;2023-04-15T04:38:30;5.00;99.90
31747;DHT22;18319;48.974;8.462;2023-04-15T04:40:57;5.00;99.90
31747;DHT22;18319;48.974;8.462;2023-04-15T04:43:24;4.90;99.90
31747;DHT22;18319;48.974;8.462;2023-04-15T04:45:51;4.90;99.90
31747;DHT22;18319;48.974;8.462;2023-04-15T04:48:18;4.90;99.90
31747;DHT22;18319;48.974;8.462;2023-04-15T04:50:45;4.80;99.90
31747;DHT22;18319;48.974;8.462;2023-04-15T04:53:12;4.90;99.90
31747;DHT22;18319;48.974;8.462;2023-04-15T04:55:40;4.90;99.90
31747;DHT22;18319;48.974;8.462;2023-04-15T04:58:07;4.90;99.90
31747;DHT22;18319;48.974;8.462;2023-04-15T05:00:34;5.00;99.90
31747;DHT22;18319;48.974;8.462;2023-04-15T05:03:02;5.00;99.90
31747;DHT22;18319;48.974;8.462;2023-04-15T05:05:29;5.00;99.90
31747;DHT22;18319;48.974;8.462;2023-04-15T05:07:56;5.00;99.90
31747;DHT22;18319;48.974;8.462;2023-04-15T05:10:22;5.00;99.90
31747;DHT22;18319;48.974;8.462;2023-04-15T05:12:50;5.00;99.90
31747;DHT22;18319;48.974;8.462;2023-04-15T05:15:17;5.00;99.90
31747;DHT22;18319;48.974;8.462;2023-04-15T05:17:44;5.00;99.90
31747;DHT22;18319;48.974;8.462;2023-04-15T05:20:12;5.00;99.90
31747;DHT22;18319;48.974;8.462;2023-04-15T05:22:38;5.10;99.90
31747;DHT22;18319;48.974;8.462;2023-04-15T05:25:06;5.10;99.90
31747;DHT22;18319;48.974;8.462;2023-04-15T05:27:33;5.10;99.90
31747;DHT22;18319;48.974;8.462;2023-04-15T05:30:01;5.20;99.90
31747;DHT22;18319;48.974;8.462;2023-04-15T05:32:28;5.20;99.90
31747;DHT22;18319;48.974;8.462;2023-04-15T05:34:54;5.20;99.90
31747;DHT22;18319;48.974;8.462;2023-04-15T05:37:21;5.30;99.90
31747;DHT22;18319;48.974;8.462;2023-04-15T05:39:48;5.40;99.90
31747;DHT22;18319;48.974;8.462;2023-04-15T05:42:15;5.50;99.90
31747;DHT22;18319;48.974;8.462;2023-04-15T05:44:41;5.60;99.90
31747;DHT22;18319;48.974;8.462;2023-04-15T05:47:09;5.70;99.90
31747;DHT22;18319;48.974;8.462;2023-04-15T05:49:36;5.80;99.90
31747;DHT22;18319;48.974;8.462;2023-04-15T05:52:03;5.80;99.90
31747;DHT22;18319;48.974;8.462;2023-04-15T05:54:30;5.90;99.90
31747;DHT22;18319;48.974;8.462;2023-04-15T05:56:57;5.90;99.90
31747;DHT22;18319;48.974;8.462;2023-04-15T05:59:24;6.00;99.90
31747;DHT22;18319;48.974;8.462;2023-04-15T06:01:51;6.10;99.90
31747;DHT22;18319;48.974;8.462;2023-04-15T06:04:19;6.20;99.90
31747;DHT22;18319;48.974;8.462;2023-04-15T06:06:46;6.30;99.90
31747;DHT22;18319;48.974;8.462;2023-04-15T06:09:13;6.40;99.90
31747;DHT22;18319;48.974;8.462;2023-04-15T06:11:39;6.50;99.90
31747;DHT22;18319;48.974;8.462;2023-04-15T06:14:06;6.70;99.90
31747;DHT22;18319;48.974;8.462;2023-04-15T06:16:33;6.80;99.90
31747;DHT22;18319;48.974;8.462;2023-04-15T06:19:01;6.90;99.90
31747;DHT22;18319;48.974;8.462;2023-04-15T06:21:29;7.00;99.90
31747;DHT22;18319;48.974;8.462;2023-04-15T06:23:57;7.00;99.90
31747;DHT22;18319;48.974;8.462;2023-04-15T06:26:23;7.00;99.90
31747;DHT22;18319;48.974;8.462;2023-04-15T06:28:51;7.10;99.90
31747;DHT22;18319;48.974;8.462;2023-04-15T06:31:17;7.10;99.90
31747;DHT22;18319;48.974;8.462;2023-04-15T06:33:44;7.20;99.90
31747;DHT22;18319;48.974;8.462;2023-04-15T06:36:11;7.30;99.90
31747;DHT22;18319;48.974;8.462;2023-04-15T06:38:39;7.40;99.90
31747;DHT22;18319;48.974;8.462;2023-04-15T06:41:06;7.50;99.90
31747;DHT22;18319;48.974;8.462;2023-04-15T06:43:32;7.60;99.90
31747;DHT22;18319;48.974;8.462;2023-04-15T06:45:59;7.60;99.90
31747;DHT22;18319;48.974;8.462;2023-04-15T06:48:26;7.70;99.90
31747;DHT22;18319;48.974;8.462;2023-04-15T06:50:53;7.80;99.90
31747;DHT22;18319;48.974;8.462;2023-04-15T06:53:20;7.90;99.90
31747;DHT22;18319;48.974;8.462;2023-04-15T06:55:48;8.00;99.90
31747;DHT22;18319;48.974;8.462;2023-04-15T06:58:15;8.20;99.90
31747;DHT22;18319;48.974;8.462;2023-04-15T07:00:42;8.20;99.90
31747;DHT22;18319;48.974;8.462;2023-04-15T07:03:11;8.30;99.90
31747;DHT22;18319;48.974;8.462;2023-04-15T07:05:39;8.50;99.90
31747;DHT22;18319;48.974;8.462;2023-04-15T07:08:06;8.80;99.90
31747;DHT22;18319;48.974;8.462;2023-04-15T07:10:33;8.90;99.90
31747;DHT22;18319;48.974;8.462;2023-04-15T07:13:01;9.10;99.90
31747;DHT22;18319;48.974;8.462;2023-04-15T07:15:28;9.20;99.90
31747;DHT22;18319;48.974;8.462;2023-04-15T07:17:55;9.30;99.90
31747;DHT22;18319;48.974;8.462;2023-04-15T07:20:22;9.50;99.90
31747;DHT22;18319;48.974;8.462;2023-04-15T07:22:49;9.60;99.90
31747;DHT22;18319;48.974;8.462;2023-04-15T07:25:16;9.80;99.90
31747;DHT22;18319;48.974;8.462;2023-04-15T07:30:12;10.50;99.90
31747;DHT22;18319;48.974;8.462;2023-04-15T07:32:39;11.00;99.90
31747;DHT22;18319;48.974;8.462;2023-04-15T07:35:08;11.60;99.90
31747;DHT22;18319;48.974;8.462;2023-04-15T07:37:35;12.10;99.90
31747;DHT22;18319;48.974;8.462;2023-04-15T07:40:02;12.60;99.90
31747;DHT22;18319;48.974;8.462;2023-04-15T07:42:29;13.00;99.90
31747;DHT22;18319;48.974;8.462;2023-04-15T07:44:56;13.20;99.90
31747;DHT22;18319;48.974;8.462;2023-04-15T07:47:24;13.50;97.20
31747;DHT22;18319;48.974;8.462;2023-04-15T07:49:51;13.80;94.20
31747;DHT22;18319;48.974;8.462;2023-04-15T07:52:18;13.90;93.30
31747;DHT22;18319;48.974;8.462;2023-04-15T07:54:45;14.10;94.00
31747;DHT22;18319;48.974;8.462;2023-04-15T07:57:12;14.20;92.80
31747;DHT22;18319;48.974;8.462;2023-04-15T07:59:38;14.20;92.80
31747;DHT22;18319;48.974;8.462;2023-04-15T08:02:06;14.20;91.50
31747;DHT22;18319;48.974;8.462;2023-04-15T08:04:34;14.30;88.90
31747;DHT22;18319;48.974;8.462;2023-04-15T08:07:02;14.30;87.70
31747;DHT22;18319;48.974;8.462;2023-04-15T08:09:29;14.70;90.50
31747;DHT22;18319;48.974;8.462;2023-04-15T08:11:56;15.00;88.40
31747;DHT22;18319;48.974;8.462;2023-04-15T08:14:23;15.30;85.30
31747;DHT22;18319;48.974;8.462;2023-04-15T08:16:50;15.50;84.20
31747;DHT22;18319;48.974;8.462;2023-04-15T08:19:17;15.60;83.10
31747;DHT22;18319;48.974;8.462;2023-04-15T08:21:45;15.50;80.70
31747;DHT22;18319;48.974;8.462;2023-04-15T08:24:11;15.60;80.70
31747;DHT22;18319;48.974;8.462;2023-04-15T08:26:38;15.70;80.40
31747;DHT22;18319;48.974;8.462;2023-04-15T08:29:06;15.80;79.80
31747;DHT22;18319;48.974;8.462;2023-04-15T08:31:33;15.90;80.50
31747;DHT22;18319;48.974;8.462;2023-04-15T08:34:00;16.20;84.00
31747;DHT22;18319;48.974;8.462;2023-04-15T08:36:27;16.50;81.20
31747;DHT22;18319;48.974;8.462;2023-04-15T08:38:55;16.80;77.60
31747;DHT22;18319;48.974;8.462;2023-04-15T08:41:23;17.20;74.40
31747;DHT22;18319;48.974;8.462;2023-04-15T08:43:56;17.10;70.60
31747;DHT22;18319;48.974;8.462;2023-04-15T08:46:24;17.00;73.00
31747;DHT22;18319;48.974;8.462;2023-04-15T08:48:51;17.10;75.00
31747;DHT22;18319;48.974;8.462;2023-04-15T08:51:21;17.20;73.10
31747;DHT22;18319;48.974;8.462;2023-04-15T08:53:49;17.20;73.50
31747;DHT22;18319;48.974;8.462;2023-04-15T08:56:18;17.10;71.50
31747;DHT22;18319;48.974;8.462;2023-04-15T08:58:49;17.00;74.40
31747;DHT22;18319;48.974;8.462;2023-04-15T09:01:16;16.90;71.60
31747;DHT22;18319;48.974;8.462;2023-04-15T09:03:44;16.70;72.30
31747;DHT22;18319;48.974;8.462;2023-04-15T09:06:11;16.50;70.60
31747;DHT22;18319;48.974;8.462;2023-04-15T09:08:38;16.60;69.50
31747;DHT22;18319;48.974;8.462;2023-04-15T09:11:05;16.70;71.20
31747;DHT22;18319;48.974;8.462;2023-04-15T09:13:34;16.90;69.30
31747;DHT22;18319;48.974;8.462;2023-04-15T09:16:01;16.90;69.60
31747;DHT22;18319;48.974;8.462;2023-04-15T09:18:29;17.10;70.30
31747;DHT22;18319;48.974;8.462;2023-04-15T09:21:03;17.20;71.70
31747;DHT22;18319;48.974;8.462;2023-04-15T09:23:31;17.30;70.90
31747;DHT22;18319;48.974;8.462;2023-04-15T09:25:58;17.40;74.60
31747;DHT22;18319;48.974;8.462;2023-04-15T09:28:24;17.50;69.70
31747;DHT22;18319;48.974;8.462;2023-04-15T09:30:56;17.50;68.20
31747;DHT22;18319;48.974;8.462;2023-04-15T09:33:23;17.50;66.50
31747;DHT22;18319;48.974;8.462;2023-04-15T09:35:59;17.40;69.40
31747;DHT22;18319;48.974;8.462;2023-04-15T09:38:26;17.40;66.80
31747;DHT22;18319;48.974;8.462;2023-04-15T09:40:54;17.30;68.00
31747;DHT22;18319;48.974;8.462;2023-04-15T09:43:20;17.20;70.20
31747;DHT22;18319;48.974;8.462;2023-04-15T09:45:48;17.20;67.20
31747;DHT22;18319;48.974;8.462;2023-04-15T09:48:19;17.00;70.90
31747;DHT22;18319;48.974;8.462;2023-04-15T09:50:47;16.60;66.80
31747;DHT22;18319;48.974;8.462;2023-04-15T09:53:18;16.70;68.40
31747;DHT22;18319;48.974;8.462;2023-04-15T09:55:48;16.70;68.10
31747;DHT22;18319;48.974;8.462;2023-04-15T09:58:20;16.70;72.40
31747;DHT22;18319;48.974;8.462;2023-04-15T10:00:47;16.70;70.40
31747;DHT22;18319;48.974;8.462;2023-04-15T10:03:19;16.70;66.00
31747;DHT22;18319;48.974;8.462;2023-04-15T10:05:48;16.80;70.50
31747;DHT22;18319;48.974;8.462;2023-04-15T10:08:17;16.90;71.50
31747;DHT22;18319;48.974;8.462;2023-04-15T10:10:45;17.00;72.50
31747;DHT22;18319;48.974;8.462;2023-04-15T10:13:12;16.90;64.00
31747;DHT22;18319;48.974;8.462;2023-04-15T10:15:43;17.00;69.10
31747;DHT22;18319;48.974;8.462;2023-04-15T10:18:12;17.10;69.80
31747;DHT22;18319;48.974;8.462;2023-04-15T10:20:42;17.10;67.80
31747;DHT22;18319;48.974;8.462;2023-04-15T10:23:10;17.10;67.70
31747;DHT22;18319;48.974;8.462;2023-04-15T10:25:37;17.10;68.10
31747;DHT22;18319;48.974;8.462;2023-04-15T10:28:06;17.20;69.30
31747;DHT22;18319;48.974;8.462;2023-04-15T10:30:33;17.10;67.90
31747;DHT22;18319;48.974;8.462;2023-04-15T10:33:00;17.00;69.10
31747;DHT22;18319;48.974;8.462;2023-04-15T10:35:29;16.90;61.50
31747;DHT22;18319;48.974;8.462;2023-04-15T10:37:57;16.80;66.90
31747;DHT22;18319;48.974;8.462;2023-04-15T10:40:26;16.70;69.00
31747;DHT22;18319;48.974;8.462;2023-04-15T10:42:54;16.70;69.30
31747;DHT22;18319;48.974;8.462;2023-04-15T10:45:23;16.70;69.00
31747;DHT22;18319;48.974;8.462;2023-04-15T10:47:53;16.80;64.20
31747;DHT22;18319;48.974;8.462;2023-04-15T10:50:20;17.00;65.80
31747;DHT22;18319;48.974;8.462;2023-04-15T10:52:50;17.10;66.20
31747;DHT22;18319;48.974;8.462;2023-04-15T10:55:21;17.30;67.70
31747;DHT22;18319;48.974;8.462;2023-04-15T10:57:51;17.30;67.80
31747;DHT22;18319;48.974;8.462;2023-04-15T11:00:20;17.40;68.70
31747;DHT22;18319;48.974;8.462;2023-04-15T11:02:53;17.60;67.50
31747;DHT22;18319;48.974;8.462;2023-04-15T11:05:21;17.70;68.40
31747;DHT22;18319;48.974;8.462;2023-04-15T11:07:50;17.80;68.80
31747;DHT22;18319;48.974;8.462;2023-04-15T11:10:52;17.80;68.70
31747;DHT22;18319;48.974;8.462;2023-04-15T11:13:26;18.00;64.40
31747;DHT22;18319;48.974;8.462;2023-04-15T11:16:02;18.10;61.30
31747;DHT22;18319;48.974;8.462;2023-04-15T11:18:31;17.80;54.60
31747;DHT22;18319;48.974;8.462;2023-04-15T11:21:00;17.90;59.10
31747;DHT22;18319;48.974;8.462;2023-04-15T11:23:30;18.00;58.20
31747;DHT22;18319;48.974;8.462;2023-04-15T11:26:00;18.00;59.70
31747;DHT22;18319;48.974;8.462;2023-04-15T11:28:29;17.90;57.40
31747;DHT22;18319;48.974;8.462;2023-04-15T11:30:56;17.70;58.50
31747;DHT22;18319;48.974;8.462;2023-04-15T11:33:24;17.60;59.00
31747;DHT22;18319;48.974;8.462;2023-04-15T11:35:52;17.40;56.20
31747;DHT22;18319;48.974;8.462;2023-04-15T11:38:19;17.40;61.70
31747;DHT22;18319;48.974;8.462;2023-04-15T11:40:46;17.20;55.70
31747;DHT22;18319;48.974;8.462;2023-04-15T11:43:17;17.30;59.70
31747;DHT22;18319;48.974;8.462;2023-04-15T11:45:50;17.10;57.50
31747;DHT22;18319;48.974;8.462;2023-04-15T11:48:18;16.90;58.50
31747;DHT22;18319;48.974;8.462;2023-04-15T11:50:49;16.80;58.20
31747;DHT22;18319;48.974;8.462;2023-04-15T11:53:18;16.60;57.60
31747;DHT22;18319;48.974;8.462;2023-04-15T11:55:47;16.50;58.10
31747;DHT22;18319;48.974;8.462;2023-04-15T11:58:17;16.40;59.00
31747;DHT22;18319;48.974;8.462;2023-04-15T12:00:48;16.20;58.60
31747;DHT22;18319;48.974;8.462;2023-04-15T12:03:19;16.10;64.00
31747;DHT22;18319;48.974;8.462;2023-04-15T12:06:06;16.10;58.90
31747;DHT22;18319;48.974;8.462;2023-04-15T12:08:57;16.10;59.80
31747;DHT22;18319;48.974;8.462;2023-04-15T12:11:32;16.10;60.20
31747;DHT22;18319;48.974;8.462;2023-04-15T12:14:05;16.20;62.80
31747;DHT22;18319;48.974;8.462;2023-04-15T12:16:33;16.20;58.70
31747;DHT22;18319;48.974;8.462;2023-04-15T12:19:04;16.40;58.40
31747;DHT22;18319;48.974;8.462;2023-04-15T12:21:36;16.40;58.90
31747;DHT22;18319;48.974;8.462;2023-04-15T12:24:05;16.30;59.10
31747;DHT22;18319;48.974;8.462;2023-04-15T12:26:35;16.20;59.90
31747;DHT22;18319;48.974;8.462;2023-04-15T12:29:05;16.20;55.10
31747;DHT22;18319;48.974;8.462;2023-04-15T12:31:33;16.20;58.00
31747;DHT22;18319;48.974;8.462;2023-04-15T12:34:00;16.20;57.10
31747;DHT22;18319;48.974;8.462;2023-04-15T12:36:28;16.20;57.00
31747;DHT22;18319;48.974;8.462;2023-04-15T12:39:01;16.30;55.70
31747;DHT22;18319;48.974;8.462;2023-04-15T12:41:27;16.60;57.90
31747;DHT22;18319;48.974;8.462;2023-04-15T12:43:54;16.80;55.90
31747;DHT22;18319;48.974;8.462;2023-04-15T12:46:23;17.00;56.50
31747;DHT22;18319;48.974;8.462;2023-04-15T12:48:50;17.10;52.60
31747;DHT22;18319;48.974;8.462;2023-04-15T12:51:17;17.20;47.50
31747;DHT22;18319;48.974;8.462;2023-04-15T12:53:45;17.40;46.90
31747;DHT22;18319;48.974;8.462;2023-04-15T12:56:13;17.60;46.40
31747;DHT22;18319;48.974;8.462;2023-04-15T12:58:39;17.70;44.60
31747;DHT22;18319;48.974;8.462;2023-04-15T13:01:06;17.70;45.20
31747;DHT22;18319;48.974;8.462;2023-04-15T13:03:34;17.80;46.20
31747;DHT22;18319;48.974;8.462;2023-04-15T13:06:01;17.60;39.80
31747;DHT22;18319;48.974;8.462;2023-04-15T13:08:29;17.70;44.20
31747;DHT22;18319;48.974;8.462;2023-04-15T13:10:56;17.70;44.80
31747;DHT22;18319;48.974;8.462;2023-04-15T13:13:23;17.60;44.60
31747;DHT22;18319;48.974;8.462;2023-04-15T13:15:50;17.30;45.00
31747;DHT22;18319;48.974;8.462;2023-04-15T13:18:16;17.00;43.40
31747;DHT22;18319;48.974;8.462;2023-04-15T13:20:44;16.80;44.80
31747;DHT22;18319;48.974;8.462;2023-04-15T13:23:11;16.60;47.60
31747;DHT22;18319;48.974;8.462;2023-04-15T13:25:38;16.30;47.80
31747;DHT22;18319;48.974;8.462;2023-04-15T13:28:05;16.20;48.30
31747;DHT22;18319;48.974;8.462;2023-04-15T13:30:32;16.10;48.40
31747;DHT22;18319;48.974;8.462;2023-04-15T13:32:59;16.00;47.90
31747;DHT22;18319;48.974;8.462;2023-04-15T13:35:26;16.00;49.80
31747;DHT22;18319;48.974;8.462;2023-04-15T13:37:54;16.00;50.30
31747;DHT22;18319;48.974;8.462;2023-04-15T13:40:21;15.80;48.80
31747;DHT22;18319;48.974;8.462;2023-04-15T13:42:47;15.80;50.40
31747;DHT22;18319;48.974;8.462;2023-04-15T13:45:15;15.80;50.10
31747;DHT22;18319;48.974;8.462;2023-04-15T13:47:42;15.80;53.60
31747;DHT22;18319;48.974;8.462;2023-04-15T13:50:09;15.90;54.20
31747;DHT22;18319;48.974;8.462;2023-04-15T13:52:36;15.80;54.90
31747;DHT22;18319;48.974;8.462;2023-04-15T13:55:05;15.70;54.80
31747;DHT22;18319;48.974;8.462;2023-04-15T13:57:32;15.50;54.30
31747;DHT22;18319;48.974;8.462;2023-04-15T13:59:59;15.40;56.30
31747;DHT22;18319;48.974;8.462;2023-04-15T14:02:26;15.30;54.50
31747;DHT22;18319;48.974;8.462;2023-04-15T14:04:53;15.30;58.40
31747;DHT22;18319;48.974;8.462;2023-04-15T14:07:19;15.10;60.40
31747;DHT22;18319;48.974;8.462;2023-04-15T14:09:46;15.10;58.60
31747;DHT22;18319;48.974;8.462;2023-04-15T14:12:15;14.90;60.40
31747;DHT22;18319;48.974;8.462;2023-04-15T14:14:41;14.80;59.80
31747;DHT22;18319;48.974;8.462;2023-04-15T14:17:08;14.80;59.80
31747;DHT22;18319;48.974;8.462;2023-04-15T14:19:35;14.70;59.80
31747;DHT22;18319;48.974;8.462;2023-04-15T14:22:02;14.70;60.70
31747;DHT22;18319;48.974;8.462;2023-04-15T14:24:28;14.60;62.60
31747;DHT22;18319;48.974;8.462;2023-04-15T14:26:55;14.60;65.80
31747;DHT22;18319;48.974;8.462;2023-04-15T14:29:24;14.60;62.00
31747;DHT22;18319;48.974;8.462;2023-04-15T14:31:50;14.50;60.00
31747;DHT22;18319;48.974;8.462;2023-04-15T14:34:17;14.50;60.10
31747;DHT22;18319;48.974;8.462;2023-04-15T14:36:46;14.50;61.10
31747;DHT22;18319;48.974;8.462;2023-04-15T14:39:13;14.50;61.50
31747;DHT22;18319;48.974;8.462;2023-04-15T14:41:40;14.50;60.40
31747;DHT22;18319;48.974;8.462;2023-04-15T14:44:07;14.50;57.60
31747;DHT22;18319;48.974;8.462;2023-04-15T14:46:37;14.40;57.90
31747;DHT22;18319;48.974;8.462;2023-04-15T14:49:05;14.40;58.50
31747;DHT22;18319;48.974;8.462;2023-04-15T14:51:32;14.40;56.60
31747;DHT22;18319;48.974;8.462;2023-04-15T14:53:58;14.40;56.80
31747;DHT22;18319;48.974;8.462;2023-04-15T14:56:25;14.40;57.60
31747;DHT22;18319;48.974;8.462;2023-04-15T14:58:52;14.40;58.80
31747;DHT22;18319;48.974;8.462;2023-04-15T15:01:19;14.40;57.50
31747;DHT22;18319;48.974;8.462;2023-04-15T15:03:48;14.50;59.40
31747;DHT22;18319;48.974;8.462;2023-04-15T15:06:15;14.50;58.70
31747;DHT22;18319;48.974;8.462;2023-04-15T15:08:42;14.50;60.00
31747;DHT22;18319;48.974;8.462;2023-04-15T15:11:08;14.60;60.70
31747;DHT22;18319;48.974;8.462;2023-04-15T15:13:35;14.60;62.60
31747;DHT22;18319;48.974;8.462;2023-04-15T15:16:02;14.60;61.60
31747;DHT22;18319;48.974;8.462;2023-04-15T15:18:29;14.50;60.00
31747;DHT22;18319;48.974;8.462;2023-04-15T15:20:57;14.50;58.60
31747;DHT22;18319;48.974;8.462;2023-04-15T15:23:24;14.50;57.80
31747;DHT22;18319;48.974;8.462;2023-04-15T15:25:51;14.40;58.90
31747;DHT22;18319;48.974;8.462;2023-04-15T15:28:18;14.30;60.30
31747;DHT22;18319;48.974;8.462;2023-04-15T15:30:48;14.30;58.40
31747;DHT22;18319;48.974;8.462;2023-04-15T15:33:15;14.20;57.00
31747;DHT22;18319;48.974;8.462;2023-04-15T15:35:42;14.10;57.80
31747;DHT22;18319;48.974;8.462;2023-04-15T15:38:11;14.10;57.50
31747;DHT22;18319;48.974;8.462;2023-04-15T15:40:38;14.00;57.90
31747;DHT22;18319;48.974;8.462;2023-04-15T15:43:05;14.00;58.20
31747;DHT22;18319;48.974;8.462;2023-04-15T15:45:31;13.90;57.80